createdAt,value
2019-01-31T00:01:30.903Z,62.13
2019-01-31T00:04:25.982Z,62.23
2019-01-31T00:07:24.146Z,63.67
2019-01-31T00:10:16.679Z,57.30
2019-01-31T00:12:58.242Z,55.47
2019-01-31T00:15:36.350Z,56.47
2019-01-31T00:18:14.907Z,51.87
2019-01-31T00:20:47.666Z,51.87
2019-01-31T00:23:39.548Z,52.93
2019-01-31T00:26:21.792Z,57.83
2019-01-31T00:29:12.843Z,60.43
2019-01-31T00:31:57.061Z,68.63
2019-01-31T00:35:02.632Z,62.90
2019-01-31T00:37:35.290Z,60.57
2019-01-31T00:40:27.567Z,62.60
2019-01-31T00:43:12.287Z,57.23
2019-01-31T00:46:13.590Z,53.00
2019-01-31T00:48:46.174Z,56.27
2019-01-31T00:51:24.915Z,53.10
2019-01-31T00:54:03.381Z,54.37
2019-01-31T00:56:38.994Z,62.13
2019-01-31T00:59:31.413Z,62.80
2019-01-31T01:02:28.915Z,65.53
2019-01-31T01:05:04.293Z,60.80
2019-01-31T01:07:48.799Z,54.63
2019-01-31T01:10:39.515Z,55.80
2019-01-31T01:13:14.742Z,58.40
2019-01-31T01:15:48.159Z,59.53
2019-01-31T01:18:38.528Z,52.87
2019-01-31T01:21:25.924Z,54.37
2019-01-31T01:24:10.415Z,55.23
2019-01-31T01:26:46.135Z,54.20
2019-01-31T01:29:24.650Z,55.43
2019-01-31T01:32:09.209Z,50.90
2019-01-31T01:35:00.923Z,46.20
2019-01-31T01:37:51.844Z,49.87
2019-01-31T01:40:27.165Z,49.27
2019-01-31T01:43:14.654Z,46.87
2019-01-31T01:46:02.926Z,44.57
2019-01-31T01:48:38.295Z,43.63
2019-01-31T01:51:32.795Z,45.57
2019-01-31T01:54:21.698Z,41.03
2019-01-31T01:57:16.778Z,42.60
2019-01-31T02:00:09.067Z,45.63
2019-01-31T02:02:44.621Z,41.37
2019-01-31T02:05:35.308Z,52.07
2019-01-31T02:08:07.924Z,41.93
2019-01-31T02:10:52.302Z,50.40
2019-01-31T02:13:36.627Z,48.67
2019-01-31T02:16:29.170Z,44.60
2019-01-31T02:19:04.434Z,44.63
2019-01-31T02:21:55.193Z,36.60
2019-01-31T02:24:37.106Z,37.03
2019-01-31T02:27:24.658Z,43.63
2019-01-31T02:30:09.384Z,41.30
2019-01-31T02:32:45.514Z,39.70
2019-01-31T02:35:23.924Z,41.43
2019-01-31T02:38:02.562Z,40.27
2019-01-31T02:40:47.309Z,44.00
2019-01-31T02:43:22.582Z,38.97
2019-01-31T02:46:01.875Z,39.90
2019-01-31T02:48:43.016Z,36.10
2019-01-31T02:51:21.953Z,34.73
2019-01-31T02:54:00.546Z,36.20
2019-01-31T02:56:33.239Z,36.07
2019-01-31T02:59:28.815Z,36.23
2019-01-31T03:02:05.457Z,33.80
2019-01-31T03:04:56.643Z,34.60
2019-01-31T03:07:29.254Z,40.47
2019-01-31T03:10:16.558Z,33.60
2019-01-31T03:13:11.727Z,33.47
2019-01-31T03:15:49.854Z,36.07
2019-01-31T03:18:31.466Z,31.27
2019-01-31T03:21:04.090Z,32.47
2019-01-31T03:23:44.850Z,38.70
2019-01-31T03:26:29.263Z,29.33
2019-01-31T03:29:32.999Z,31.87
2019-01-31T03:32:11.404Z,28.73
2019-01-31T03:34:46.722Z,29.77
2019-01-31T03:37:53.828Z,34.23
2019-01-31T03:40:29.222Z,27.73
2019-01-31T03:43:10.771Z,28.93
2019-01-31T03:46:04.280Z,29.73
2019-01-31T03:48:47.806Z,27.27
2019-01-31T03:51:35.268Z,25.57
2019-01-31T03:54:13.906Z,28.57
2019-01-31T03:56:52.611Z,26.93
2019-01-31T03:59:25.201Z,24.67
2019-01-31T04:02:31.970Z,25.03
2019-01-31T04:05:13.796Z,27.57
2019-01-31T04:07:43.478Z,26.30
2019-01-31T04:10:19.123Z,26.57
2019-01-31T04:12:44.394Z,27.17
2019-01-31T04:15:14.088Z,26.87
2019-01-31T04:17:43.720Z,29.67
2019-01-31T04:20:13.436Z,30.00
2019-01-31T04:22:43.319Z,31.13
2019-01-31T04:25:12.960Z,25.10
2019-01-31T04:27:42.526Z,27.33
2019-01-31T04:30:14.813Z,25.67
2019-01-31T04:32:44.386Z,25.57
2019-01-31T04:35:14.036Z,26.30
2019-01-31T04:37:43.654Z,24.77
2019-01-31T04:40:13.406Z,25.70
2019-01-31T04:42:42.980Z,28.37
2019-01-31T04:45:12.717Z,26.47
2019-01-31T04:47:42.218Z,25.90
2019-01-31T04:50:14.019Z,28.17
2019-01-31T04:52:43.628Z,23.60
2019-01-31T04:55:13.267Z,24.47
2019-01-31T04:57:42.910Z,22.47
2019-01-31T05:00:16.457Z,22.87
2019-01-31T05:02:46.277Z,25.97
2019-01-31T05:05:16.010Z,24.20
2019-01-31T05:07:46.275Z,24.27
2019-01-31T05:10:15.916Z,25.07
2019-01-31T05:12:45.571Z,25.33
2019-01-31T05:15:16.172Z,24.50
2019-01-31T05:17:45.670Z,29.67
2019-01-31T05:20:17.321Z,26.07
2019-01-31T05:22:47.327Z,29.70
2019-01-31T05:25:16.971Z,33.30
2019-01-31T05:27:46.698Z,26.43
2019-01-31T05:30:17.573Z,25.37
2019-01-31T05:32:47.146Z,23.53
2019-01-31T05:35:16.774Z,26.43
2019-01-31T05:37:46.324Z,24.10
2019-01-31T05:40:16.054Z,25.53
2019-01-31T05:42:45.827Z,28.53
2019-01-31T05:45:16.506Z,25.33
2019-01-31T05:47:46.008Z,32.20
2019-01-31T05:50:17.235Z,29.60
2019-01-31T05:52:47.067Z,27.40
2019-01-31T05:55:16.788Z,28.47
2019-01-31T05:57:46.435Z,25.37
2019-01-31T06:00:22.874Z,22.13
2019-01-31T06:02:52.618Z,19.90
2019-01-31T06:05:22.623Z,20.67
2019-01-31T06:07:52.234Z,17.27
2019-01-31T06:10:21.726Z,19.60
2019-01-31T06:12:53.495Z,19.90
2019-01-31T06:15:23.018Z,18.40
2019-01-31T06:17:52.802Z,19.20
2019-01-31T06:20:24.740Z,18.00
2019-01-31T06:22:55.104Z,18.70
2019-01-31T06:25:24.763Z,18.93
2019-01-31T06:27:54.314Z,16.13
2019-01-31T06:30:23.906Z,15.07
2019-01-31T06:32:53.475Z,14.53
2019-01-31T06:35:23.045Z,14.43
2019-01-31T06:37:52.575Z,14.37
2019-01-31T06:40:22.214Z,14.77
2019-01-31T06:42:53.383Z,15.60
2019-01-31T06:45:23.074Z,18.90
2019-01-31T06:47:52.701Z,15.50
2019-01-31T06:50:22.333Z,18.43
2019-01-31T06:52:52.106Z,20.40
2019-01-31T06:55:21.742Z,19.93
2019-01-31T06:57:51.249Z,22.40
2019-01-31T07:00:23.014Z,18.93
2019-01-31T07:02:52.730Z,17.77
2019-01-31T07:05:22.226Z,16.10
2019-01-31T07:07:51.762Z,17.57
2019-01-31T07:10:24.003Z,16.47
2019-01-31T07:12:53.567Z,16.37
2019-01-31T07:15:23.404Z,18.80
2019-01-31T07:17:53.102Z,19.70
2019-01-31T07:20:22.682Z,22.53
2019-01-31T07:22:52.449Z,22.83
2019-01-31T07:25:24.090Z,20.73
2019-01-31T07:27:53.726Z,20.40
2019-01-31T07:30:26.729Z,20.70
2019-01-31T07:32:55.600Z,20.23
2019-01-31T07:35:25.321Z,22.87
2019-01-31T07:37:55.075Z,21.03
2019-01-31T07:40:24.718Z,20.80
2019-01-31T07:42:54.425Z,22.27
2019-01-31T07:45:29.408Z,22.53
2019-01-31T07:47:59.187Z,21.33
2019-01-31T07:50:28.830Z,22.17
2019-01-31T07:52:59.082Z,19.43
2019-01-31T07:55:28.586Z,23.83
2019-01-31T07:57:58.241Z,22.70
2019-01-31T08:00:28.799Z,22.83
2019-01-31T08:02:58.511Z,23.30
2019-01-31T08:05:28.209Z,22.77
2019-01-31T08:07:58.675Z,26.40
2019-01-31T08:10:33.951Z,26.50
2019-01-31T08:13:03.870Z,26.17
2019-01-31T08:15:33.518Z,21.97
2019-01-31T08:18:03.146Z,22.93
2019-01-31T08:20:32.824Z,23.80
2019-01-31T08:23:02.508Z,26.73
2019-01-31T08:25:32.287Z,34.83
2019-01-31T08:28:02.033Z,31.73
2019-01-31T08:30:40.323Z,28.43
2019-01-31T08:33:09.965Z,34.47
2019-01-31T08:35:39.607Z,29.07
2019-01-31T08:38:09.796Z,28.93
2019-01-31T08:40:39.372Z,29.33
2019-01-31T08:43:08.875Z,28.03
2019-01-31T08:45:38.418Z,29.87
2019-01-31T08:48:08.058Z,27.67
2019-01-31T08:50:37.898Z,29.97
2019-01-31T08:53:07.515Z,31.10
2019-01-31T08:55:37.083Z,34.67
2019-01-31T08:58:06.757Z,47.60
2019-01-31T09:00:36.583Z,42.57
2019-01-31T09:03:06.254Z,38.17
2019-01-31T09:05:36.115Z,40.73
2019-01-31T09:08:05.802Z,47.17
2019-01-31T09:10:38.408Z,45.67
2019-01-31T09:13:09.889Z,44.73
2019-01-31T09:15:39.626Z,39.97
2019-01-31T09:18:09.275Z,42.07
2019-01-31T09:20:56.830Z,48.17
2019-01-31T09:23:32.334Z,46.90
2019-01-31T09:26:16.903Z,47.47
2019-01-31T09:29:10.510Z,41.73
2019-01-31T09:31:58.235Z,43.40
2019-01-31T09:34:39.430Z,44.63
2019-01-31T09:37:26.723Z,41.97
2019-01-31T09:40:18.494Z,38.83
2019-01-31T09:42:56.843Z,41.00
2019-01-31T09:45:32.340Z,44.33
2019-01-31T09:48:13.775Z,47.13
2019-01-31T09:50:49.535Z,46.03
2019-01-31T09:53:28.090Z,45.20
2019-01-31T09:56:34.714Z,45.03
2019-01-31T09:59:24.542Z,51.63
2019-01-31T10:02:17.014Z,42.60
2019-01-31T10:05:12.854Z,42.77
2019-01-31T10:07:51.483Z,44.90
2019-01-31T10:11:00.762Z,77.10
2019-01-31T10:13:45.184Z,84.17
2019-01-31T10:16:20.518Z,122.80
2019-01-31T10:18:55.786Z,127.35
2019-01-31T10:21:40.267Z,116.07
2019-01-31T10:24:12.893Z,111.68
2019-01-31T10:26:50.623Z,126.33
2019-01-31T10:29:38.027Z,136.07
2019-01-31T10:32:25.378Z,150.07
2019-01-31T10:35:06.452Z,159.78
2019-01-31T10:37:39.065Z,127.27
2019-01-31T10:40:34.150Z,120.37
2019-01-31T10:43:21.730Z,108.63
2019-01-31T10:45:57.102Z,100.17
2019-01-31T10:48:32.508Z,91.30
2019-01-31T10:51:13.936Z,86.17
2019-01-31T10:53:58.430Z,92.07
2019-01-31T10:56:51.475Z,96.23
2019-01-31T10:59:30.010Z,104.23
2019-01-31T11:02:08.831Z,104.13
2019-01-31T11:04:50.126Z,93.20
2019-01-31T11:07:37.493Z,90.03
2019-01-31T11:10:26.990Z,99.97
2019-01-31T11:13:20.783Z,88.47
2019-01-31T11:16:10.059Z,97.63
2019-01-31T11:18:42.647Z,98.10
2019-01-31T11:21:27.068Z,84.00
2019-01-31T11:24:11.618Z,86.27
2019-01-31T11:26:52.719Z,87.03
2019-01-31T11:29:42.027Z,95.80
2019-01-31T11:32:38.523Z,84.33
2019-01-31T11:35:37.244Z,98.27
2019-01-31T11:38:15.764Z,101.77
2019-01-31T11:41:21.406Z,108.50
2019-01-31T11:44:15.074Z,103.17
2019-01-31T11:47:04.086Z,107.73
2019-01-31T11:49:39.580Z,95.53
2019-01-31T11:52:31.779Z,99.33
2019-01-31T11:55:28.745Z,111.53
2019-01-31T11:58:16.451Z,99.43
2019-01-31T12:00:46.282Z,108.47
2019-01-31T12:03:15.853Z,124.23
2019-01-31T12:05:46.519Z,113.80
2019-01-31T12:08:16.307Z,108.93
2019-01-31T12:10:45.946Z,116.33
2019-01-31T12:13:23.294Z,118.00
2019-01-31T12:15:46.894Z,121.77
2019-01-31T12:18:16.478Z,121.37
2019-01-31T12:20:46.186Z,127.83
2019-01-31T12:23:16.130Z,128.23
2019-01-31T12:25:45.698Z,123.47
2019-01-31T12:28:15.270Z,125.60
2019-01-31T12:30:44.950Z,122.50
2019-01-31T12:33:15.091Z,125.00
2019-01-31T12:35:44.774Z,113.03
2019-01-31T12:38:14.483Z,117.40
2019-01-31T12:40:43.986Z,105.33
2019-01-31T12:43:13.702Z,91.40
2019-01-31T12:45:43.878Z,88.23
2019-01-31T12:48:13.443Z,92.00
2019-01-31T12:50:43.183Z,82.10
2019-01-31T12:53:12.782Z,86.13
2019-01-31T12:55:42.427Z,88.20
2019-01-31T12:58:12.042Z,83.83
2019-01-31T13:00:41.654Z,91.70
2019-01-31T13:03:11.228Z,96.03
2019-01-31T13:05:40.961Z,84.83
2019-01-31T13:08:11.473Z,95.37
2019-01-31T13:10:41.106Z,102.20
2019-01-31T13:13:10.612Z,109.93
2019-01-31T13:15:40.890Z,105.60
2019-01-31T13:18:10.800Z,104.77
2019-01-31T13:20:40.027Z,119.53
2019-01-31T13:23:09.702Z,120.07
2019-01-31T13:25:39.363Z,119.47
2019-01-31T13:28:09.195Z,103.20
2019-01-31T13:30:38.978Z,113.67
2019-01-31T13:33:08.782Z,101.23
2019-01-31T13:35:38.458Z,105.07
2019-01-31T13:38:08.180Z,120.37
2019-01-31T13:40:37.822Z,123.47
2019-01-31T13:43:07.462Z,123.60
2019-01-31T13:45:37.146Z,120.67
2019-01-31T13:48:08.790Z,127.53
2019-01-31T13:50:38.532Z,125.70
2019-01-31T13:53:08.515Z,131.90
2019-01-31T13:55:38.251Z,139.63
2019-01-31T13:58:10.066Z,139.80
2019-01-31T14:00:39.262Z,126.77
2019-01-31T14:03:08.910Z,146.60
2019-01-31T14:05:38.849Z,121.00
2019-01-31T14:08:08.526Z,115.20
2019-01-31T14:10:38.104Z,118.63
2019-01-31T14:13:07.758Z,101.60
2019-01-31T14:15:37.453Z,106.10
2019-01-31T14:18:07.019Z,107.57
2019-01-31T14:20:36.675Z,113.17
2019-01-31T14:23:06.519Z,104.93
2019-01-31T14:25:36.217Z,108.87
2019-01-31T14:28:06.040Z,104.53
2019-01-31T14:30:37.813Z,108.00
2019-01-31T14:33:09.862Z,108.80
2019-01-31T14:35:39.370Z,104.23
2019-01-31T14:38:08.982Z,112.17
2019-01-31T14:40:38.483Z,129.23
2019-01-31T14:43:08.302Z,150.17
2019-01-31T14:45:38.278Z,149.43
2019-01-31T14:48:08.540Z,122.10
2019-01-31T14:50:39.878Z,122.17
2019-01-31T14:53:09.505Z,125.87
2019-01-31T14:55:57.133Z,103.87
2019-01-31T14:58:27.826Z,95.83
2019-01-31T15:00:57.395Z,105.77
2019-01-31T15:03:26.909Z,106.17
2019-01-31T15:05:57.244Z,111.13
2019-01-31T15:08:26.959Z,115.60
2019-01-31T15:10:56.787Z,106.53
2019-01-31T15:13:26.322Z,108.93
2019-01-31T15:15:55.902Z,120.67
2019-01-31T15:18:25.482Z,133.60
2019-01-31T15:20:55.024Z,117.00
2019-01-31T15:23:24.679Z,116.00
2019-01-31T15:25:54.518Z,107.80
2019-01-31T15:28:24.104Z,110.33
2019-01-31T15:30:53.670Z,104.17
2019-01-31T15:33:24.202Z,111.43
2019-01-31T15:35:53.819Z,103.63
2019-01-31T15:38:23.321Z,108.30
2019-01-31T15:40:53.122Z,92.80
2019-01-31T15:43:22.767Z,85.30
2019-01-31T15:45:52.722Z,83.63
2019-01-31T15:48:22.211Z,79.93
2019-01-31T15:51:03.267Z,85.50
2019-01-31T15:53:34.374Z,83.17
2019-01-31T15:56:05.090Z,83.63
2019-01-31T15:58:34.780Z,85.60
2019-01-31T16:01:06.679Z,84.60
2019-01-31T16:03:36.315Z,83.97
2019-01-31T16:06:07.196Z,80.83
2019-01-31T16:08:46.298Z,77.67
2019-01-31T16:11:16.159Z,70.40
2019-01-31T16:13:45.800Z,87.30
2019-01-31T16:16:15.435Z,75.40
2019-01-31T16:18:45.035Z,76.47
2019-01-31T16:21:14.691Z,78.43
2019-01-31T16:23:44.258Z,81.90
2019-01-31T16:26:13.940Z,77.10
2019-01-31T16:28:43.444Z,89.33
2019-01-31T16:31:13.119Z,90.13
2019-01-31T16:33:42.795Z,83.37
2019-01-31T16:36:12.447Z,84.37
2019-01-31T16:38:42.267Z,91.37
2019-01-31T16:41:11.883Z,116.23
2019-01-31T16:43:41.467Z,104.47
2019-01-31T16:46:10.971Z,108.10
2019-01-31T16:48:40.604Z,95.20
2019-01-31T16:51:18.224Z,110.33
2019-01-31T16:53:47.966Z,109.70
2019-01-31T16:56:17.905Z,109.27
2019-01-31T16:58:47.684Z,96.77
2019-01-31T17:01:17.327Z,79.37
2019-01-31T17:03:46.912Z,82.53
2019-01-31T17:06:16.435Z,74.07
2019-01-31T17:08:46.137Z,80.87
2019-01-31T17:11:15.838Z,80.67
2019-01-31T17:13:45.406Z,96.07
2019-01-31T17:16:14.931Z,88.27
2019-01-31T17:18:44.445Z,78.10
2019-01-31T17:21:14.120Z,83.37
2019-01-31T17:23:43.870Z,93.20
2019-01-31T17:26:13.737Z,99.87
2019-01-31T17:28:43.243Z,99.63
2019-01-31T17:31:13.309Z,90.70
2019-01-31T17:33:42.887Z,95.20
2019-01-31T17:36:12.471Z,101.70
2019-01-31T17:38:42.099Z,102.17
2019-01-31T17:41:11.764Z,130.33
2019-01-31T17:43:41.273Z,114.70
2019-01-31T17:46:12.082Z,88.53
2019-01-31T17:48:41.583Z,80.63
2019-01-31T17:51:13.054Z,91.37
2019-01-31T17:53:42.738Z,81.33
2019-01-31T17:56:12.314Z,81.93
2019-01-31T17:58:42.535Z,95.03
2019-01-31T18:01:12.067Z,98.67
2019-01-31T18:03:41.648Z,91.20
2019-01-31T18:06:11.282Z,88.63
2019-01-31T18:08:41.760Z,91.83
2019-01-31T18:11:11.509Z,72.93
2019-01-31T18:13:41.092Z,68.17
2019-01-31T18:16:11.604Z,71.63
2019-01-31T18:18:41.110Z,76.20
2019-01-31T18:21:12.957Z,80.43
2019-01-31T18:23:41.926Z,80.23
2019-01-31T18:26:11.566Z,77.47
2019-01-31T18:28:41.159Z,80.27
2019-01-31T18:31:11.771Z,78.80
2019-01-31T18:33:41.382Z,87.00
2019-01-31T18:36:10.900Z,82.17
2019-01-31T18:38:40.428Z,87.47
2019-01-31T18:41:10.006Z,88.93
2019-01-31T18:43:39.520Z,82.70
2019-01-31T18:46:09.202Z,90.87
2019-01-31T18:48:38.818Z,86.03
2019-01-31T18:51:08.661Z,91.73
2019-01-31T18:53:38.346Z,107.17
2019-01-31T18:56:08.043Z,84.83
2019-01-31T18:58:37.691Z,100.80
2019-01-31T19:01:07.491Z,115.13
2019-01-31T19:03:37.145Z,108.63
2019-01-31T19:06:06.898Z,122.17
2019-01-31T19:08:39.873Z,109.13
2019-01-31T19:11:09.705Z,107.67
2019-01-31T19:13:39.206Z,113.00
2019-01-31T19:16:08.826Z,107.33
2019-01-31T19:18:38.396Z,118.00
2019-01-31T19:21:08.146Z,109.10
2019-01-31T19:23:37.821Z,112.70
2019-01-31T19:26:07.469Z,100.33
2019-01-31T19:28:37.008Z,115.50
2019-01-31T19:31:07.642Z,111.53
2019-01-31T19:33:37.278Z,124.00
2019-01-31T19:36:06.988Z,113.77
2019-01-31T19:38:36.590Z,120.57
2019-01-31T19:41:06.241Z,125.23
2019-01-31T19:43:35.891Z,116.73
2019-01-31T19:46:15.769Z,117.37
2019-01-31T19:48:36.890Z,115.47
2019-01-31T19:51:06.583Z,112.57
2019-01-31T19:53:36.126Z,133.73
2019-01-31T19:56:05.870Z,119.27
2019-01-31T19:58:35.374Z,127.23
2019-01-31T20:01:08.203Z,97.50
2019-01-31T20:03:37.960Z,91.33
2019-01-31T20:06:07.641Z,89.93
2019-01-31T20:08:37.176Z,103.37
2019-01-31T20:11:06.818Z,97.03
2019-01-31T20:13:36.449Z,98.87
2019-01-31T20:16:06.209Z,93.43
2019-01-31T20:18:44.498Z,90.60
2019-01-31T20:21:14.810Z,94.20
2019-01-31T20:23:44.796Z,84.60
2019-01-31T20:26:14.514Z,93.60
2019-01-31T20:28:44.046Z,79.30
2019-01-31T20:31:13.851Z,67.13
2019-01-31T20:33:43.485Z,73.23
2019-01-31T20:36:13.159Z,78.23
2019-01-31T20:38:42.728Z,70.13
2019-01-31T20:41:12.371Z,68.90
2019-01-31T20:43:42.049Z,81.50
2019-01-31T20:46:11.652Z,71.30
2019-01-31T20:48:41.214Z,73.43
2019-01-31T20:51:12.747Z,68.10
2019-01-31T20:53:42.472Z,81.07
2019-01-31T20:56:12.193Z,75.63
2019-01-31T20:58:44.597Z,84.27
2019-01-31T21:01:13.138Z,84.20
2019-01-31T21:03:42.707Z,82.20
2019-01-31T21:06:12.471Z,79.07
2019-01-31T21:08:41.998Z,84.47
2019-01-31T21:11:11.809Z,83.57
2019-01-31T21:13:41.898Z,86.13
2019-01-31T21:16:11.645Z,86.37
2019-01-31T21:18:41.204Z,84.17
2019-01-31T21:21:11.898Z,94.70
2019-01-31T21:23:41.436Z,108.93
2019-01-31T21:26:11.004Z,117.40
2019-01-31T21:28:40.632Z,103.63
2019-01-31T21:31:10.398Z,116.83
2019-01-31T21:33:40.039Z,114.53
2019-01-31T21:36:09.710Z,110.20
2019-01-31T21:38:39.401Z,109.63
2019-01-31T21:41:09.066Z,101.23
2019-01-31T21:43:38.746Z,103.30
2019-01-31T21:46:08.390Z,113.23
2019-01-31T21:48:38.031Z,98.90
2019-01-31T21:51:07.987Z,107.63
2019-01-31T21:53:37.594Z,106.03
2019-01-31T21:56:08.903Z,96.37
2019-01-31T21:58:38.513Z,87.87
2019-01-31T22:01:08.188Z,85.30
2019-01-31T22:03:37.812Z,80.77
2019-01-31T22:06:07.494Z,80.47
2019-01-31T22:08:37.085Z,85.87
2019-01-31T22:11:06.799Z,82.03
2019-01-31T22:13:36.423Z,85.80
2019-01-31T22:16:05.997Z,87.30
2019-01-31T22:18:35.558Z,82.07
2019-01-31T22:21:05.967Z,83.30
2019-01-31T22:23:35.539Z,80.07
2019-01-31T22:26:05.183Z,80.57
2019-01-31T22:28:35.611Z,80.80
2019-01-31T22:31:05.359Z,99.00
2019-01-31T22:33:35.011Z,94.53
2019-01-31T22:36:05.476Z,86.57
2019-01-31T22:38:35.047Z,87.30
2019-01-31T22:41:04.611Z,89.70
2019-01-31T22:43:34.202Z,88.23
2019-01-31T22:46:03.773Z,82.00
2019-01-31T22:48:33.404Z,84.53
2019-01-31T22:51:03.083Z,75.23
2019-01-31T22:53:32.649Z,84.33
2019-01-31T22:56:02.143Z,82.50
2019-01-31T22:58:31.787Z,81.87
2019-01-31T23:01:08.822Z,91.27
2019-01-31T23:03:40.163Z,80.50
2019-01-31T23:06:10.358Z,79.70
2019-01-31T23:08:40.036Z,82.50
2019-01-31T23:11:10.368Z,87.80
2019-01-31T23:13:39.863Z,96.83
2019-01-31T23:16:13.292Z,83.27
2019-01-31T23:18:42.971Z,78.93
2019-01-31T23:21:12.674Z,80.37
2019-01-31T23:23:42.247Z,79.20
2019-01-31T23:26:11.846Z,75.97
2019-01-31T23:28:41.547Z,86.33
2019-01-31T23:31:11.386Z,87.40
2019-01-31T23:33:41.297Z,89.83
2019-01-31T23:36:10.975Z,91.80
2019-01-31T23:38:40.619Z,88.73
2019-01-31T23:41:10.359Z,85.67
2019-01-31T23:43:39.923Z,80.17
2019-01-31T23:46:09.558Z,82.20
2019-01-31T23:48:39.776Z,83.80
2019-01-31T23:51:09.491Z,89.13
2019-01-31T23:54:09.959Z,93.70
2019-01-31T23:56:53.031Z,93.80
2019-01-31T23:59:22.578Z,85.37
